sensor_id;sensor_type;location;lat;lon;timestamp;temperature;humidity
8676;DHT22;4375;52.486;13.424;2023-10-31T00:03:35;12.60;99.90
8676;DHT22;4375;52.486;13.424;2023-10-31T00:07:03;12.70;99.90
8676;DHT22;4375;52.486;13.424;2023-10-31T00:24:08;12.50;99.90
8676;DHT22;4375;52.486;13.424;2023-10-31T00:27:33;12.60;99.90
8676;DHT22;4375;52.486;13.424;2023-10-31T00:30:36;12.50;99.90
8676;DHT22;4375;52.486;13.424;2023-10-31T00:37:28;12.60;99.90
8676;DHT22;4375;52.486;13.424;2023-10-31T00:47:22;12.70;99.90
8676;DHT22;4375;52.486;13.424;2023-10-31T00:54:24;12.70;99.90
8676;DHT22;4375;52.486;13.424;2023-10-31T01:15:04;12.60;99.90
8676;DHT22;4375;52.486;13.424;2023-10-31T01:18:34;12.60;99.90
8676;DHT22;4375;52.486;13.424;2023-10-31T01:21:26;12.60;99.90
8676;DHT22;4375;52.486;13.424;2023-10-31T01:24:22;12.60;99.90
8676;DHT22;4375;52.486;13.424;2023-10-31T01:27:53;12.50;99.90
8676;DHT22;4375;52.486;13.424;2023-10-31T01:31:36;12.30;99.90
8676;DHT22;4375;52.486;13.424;2023-10-31T01:34:40;12.10;99.90
8676;DHT22;4375;52.486;13.424;2023-10-31T01:37:32;12.00;99.90
8676;DHT22;4375;52.486;13.424;2023-10-31T01:41:14;12.10;99.90
8676;DHT22;4375;52.486;13.424;2023-10-31T01:44:23;12.20;99.90
8676;DHT22;4375;52.486;13.424;2023-10-31T02:44:58;12.30;99.90
8676;DHT22;4375;52.486;13.424;2023-10-31T03:45:15;12.20;99.90
8676;DHT22;4375;52.486;13.424;2023-10-31T03:47:41;12.20;99.90
8676;DHT22;4375;52.486;13.424;2023-10-31T03:50:08;12.20;99.90
8676;DHT22;4375;52.486;13.424;2023-10-31T03:52:34;12.10;99.90
8676;DHT22;4375;52.486;13.424;2023-10-31T03:55:00;12.20;99.90
8676;DHT22;4375;52.486;13.424;2023-10-31T03:57:25;12.10;99.90
8676;DHT22;4375;52.486;13.424;2023-10-31T03:59:51;12.20;99.90
8676;DHT22;4375;52.486;13.424;2023-10-31T04:02:17;12.10;99.90
8676;DHT22;4375;52.486;13.424;2023-10-31T04:04:42;12.20;99.90
8676;DHT22;4375;52.486;13.424;2023-10-31T04:07:08;12.20;99.90
8676;DHT22;4375;52.486;13.424;2023-10-31T04:09:34;12.20;99.90
8676;DHT22;4375;52.486;13.424;2023-10-31T04:11:59;12.20;99.90
8676;DHT22;4375;52.486;13.424;2023-10-31T04:14:25;12.20;99.90
8676;DHT22;4375;52.486;13.424;2023-10-31T04:16:50;12.10;99.90
8676;DHT22;4375;52.486;13.424;2023-10-31T04:19:16;12.10;99.90
8676;DHT22;4375;52.486;13.424;2023-10-31T04:21:42;12.00;99.90
8676;DHT22;4375;52.486;13.424;2023-10-31T04:24:07;12.10;99.90
8676;DHT22;4375;52.486;13.424;2023-10-31T04:26:33;12.10;99.90
8676;DHT22;4375;52.486;13.424;2023-10-31T04:28:59;12.20;99.90
8676;DHT22;4375;52.486;13.424;2023-10-31T04:31:24;12.20;99.90
8676;DHT22;4375;52.486;13.424;2023-10-31T04:33:50;12.20;99.90
8676;DHT22;4375;52.486;13.424;2023-10-31T04:36:15;12.20;99.90
8676;DHT22;4375;52.486;13.424;2023-10-31T04:38:41;12.30;99.90
8676;DHT22;4375;52.486;13.424;2023-10-31T04:41:08;12.20;99.90
8676;DHT22;4375;52.486;13.424;2023-10-31T04:43:33;12.20;99.90
8676;DHT22;4375;52.486;13.424;2023-10-31T04:45:59;12.20;99.90
8676;DHT22;4375;52.486;13.424;2023-10-31T04:48:25;12.30;99.90
8676;DHT22;4375;52.486;13.424;2023-10-31T04:50:50;12.40;99.90
8676;DHT22;4375;52.486;13.424;2023-10-31T04:53:16;12.40;99.90
8676;DHT22;4375;52.486;13.424;2023-10-31T04:55:42;12.30;99.90
8676;DHT22;4375;52.486;13.424;2023-10-31T04:58:07;12.40;99.90
8676;DHT22;4375;52.486;13.424;2023-10-31T05:00:33;12.30;99.90
8676;DHT22;4375;52.486;13.424;2023-10-31T05:02:58;12.40;99.90
8676;DHT22;4375;52.486;13.424;2023-10-31T05:05:26;12.40;99.90
8676;DHT22;4375;52.486;13.424;2023-10-31T05:07:52;12.40;99.90
8676;DHT22;4375;52.486;13.424;2023-10-31T05:10:17;12.40;99.90
8676;DHT22;4375;52.486;13.424;2023-10-31T05:12:43;12.40;99.90
8676;DHT22;4375;52.486;13.424;2023-10-31T05:15:09;12.50;99.90
8676;DHT22;4375;52.486;13.424;2023-10-31T05:17:35;12.40;99.90
8676;DHT22;4375;52.486;13.424;2023-10-31T05:20:00;12.40;99.90
8676;DHT22;4375;52.486;13.424;2023-10-31T05:22:26;12.40;99.90
8676;DHT22;4375;52.486;13.424;2023-10-31T05:24:52;12.40;99.90
8676;DHT22;4375;52.486;13.424;2023-10-31T05:27:17;12.40;99.90
8676;DHT22;4375;52.486;13.424;2023-10-31T05:29:43;12.50;99.90
8676;DHT22;4375;52.486;13.424;2023-10-31T05:32:08;12.50;99.90
8676;DHT22;4375;52.486;13.424;2023-10-31T05:34:34;12.50;99.90
8676;DHT22;4375;52.486;13.424;2023-10-31T05:37:00;12.40;99.90
8676;DHT22;4375;52.486;13.424;2023-10-31T05:39:25;12.50;99.90
8676;DHT22;4375;52.486;13.424;2023-10-31T05:41:51;12.50;99.90
8676;DHT22;4375;52.486;13.424;2023-10-31T05:44:17;12.60;99.90
8676;DHT22;4375;52.486;13.424;2023-10-31T05:46:43;12.50;99.90
8676;DHT22;4375;52.486;13.424;2023-10-31T05:49:09;12.50;99.90
8676;DHT22;4375;52.486;13.424;2023-10-31T05:51:35;12.60;99.90
8676;DHT22;4375;52.486;13.424;2023-10-31T05:54:01;12.50;99.90
8676;DHT22;4375;52.486;13.424;2023-10-31T05:56:27;12.50;99.90
8676;DHT22;4375;52.486;13.424;2023-10-31T05:58:52;12.50;99.90
8676;DHT22;4375;52.486;13.424;2023-10-31T06:01:18;12.60;99.90
8676;DHT22;4375;52.486;13.424;2023-10-31T06:03:44;12.50;99.90
8676;DHT22;4375;52.486;13.424;2023-10-31T06:06:10;12.40;99.90
8676;DHT22;4375;52.486;13.424;2023-10-31T06:08:37;12.50;99.90
8676;DHT22;4375;52.486;13.424;2023-10-31T06:11:03;12.50;99.90
8676;DHT22;4375;52.486;13.424;2023-10-31T06:13:29;12.50;99.90
8676;DHT22;4375;52.486;13.424;2023-10-31T06:15:57;12.50;99.90
8676;DHT22;4375;52.486;13.424;2023-10-31T06:18:23;12.60;99.90
8676;DHT22;4375;52.486;13.424;2023-10-31T06:20:49;12.60;99.90
8676;DHT22;4375;52.486;13.424;2023-10-31T06:23:14;12.50;99.90
8676;DHT22;4375;52.486;13.424;2023-10-31T06:25:40;12.50;99.90
8676;DHT22;4375;52.486;13.424;2023-10-31T06:28:06;12.60;99.90
8676;DHT22;4375;52.486;13.424;2023-10-31T06:30:31;12.60;99.90
8676;DHT22;4375;52.486;13.424;2023-10-31T06:32:58;12.60;99.90
8676;DHT22;4375;52.486;13.424;2023-10-31T06:35:24;12.60;99.90
8676;DHT22;4375;52.486;13.424;2023-10-31T06:37:51;12.60;99.90
8676;DHT22;4375;52.486;13.424;2023-10-31T06:40:17;12.50;99.90
8676;DHT22;4375;52.486;13.424;2023-10-31T06:42:43;12.60;99.90
8676;DHT22;4375;52.486;13.424;2023-10-31T06:45:08;12.70;99.90
8676;DHT22;4375;52.486;13.424;2023-10-31T06:47:34;12.70;99.90
8676;DHT22;4375;52.486;13.424;2023-10-31T06:50:00;12.70;99.90
8676;DHT22;4375;52.486;13.424;2023-10-31T06:52:25;12.70;99.90
8676;DHT22;4375;52.486;13.424;2023-10-31T06:54:51;12.80;99.90
8676;DHT22;4375;52.486;13.424;2023-10-31T06:57:16;12.80;99.90
8676;DHT22;4375;52.486;13.424;2023-10-31T06:59:42;12.80;99.90
8676;DHT22;4375;52.486;13.424;2023-10-31T07:02:08;12.90;99.90
8676;DHT22;4375;52.486;13.424;2023-10-31T07:04:34;12.80;99.90
8676;DHT22;4375;52.486;13.424;2023-10-31T07:07:00;12.90;99.90
8676;DHT22;4375;52.486;13.424;2023-10-31T07:09:26;13.00;99.90
8676;DHT22;4375;52.486;13.424;2023-10-31T07:11:52;12.90;99.90
8676;DHT22;4375;52.486;13.424;2023-10-31T07:14:18;12.90;99.90
8676;DHT22;4375;52.486;13.424;2023-10-31T07:16:44;12.90;99.90
8676;DHT22;4375;52.486;13.424;2023-10-31T07:19:10;12.90;99.90
8676;DHT22;4375;52.486;13.424;2023-10-31T07:21:36;12.90;99.90
8676;DHT22;4375;52.486;13.424;2023-10-31T07:24:02;13.00;99.90
8676;DHT22;4375;52.486;13.424;2023-10-31T07:26:27;13.00;99.90
8676;DHT22;4375;52.486;13.424;2023-10-31T07:28:53;13.00;99.90
8676;DHT22;4375;52.486;13.424;2023-10-31T07:31:19;13.00;99.90
8676;DHT22;4375;52.486;13.424;2023-10-31T07:33:45;13.00;99.90
8676;DHT22;4375;52.486;13.424;2023-10-31T07:36:11;12.90;99.90
8676;DHT22;4375;52.486;13.424;2023-10-31T07:38:37;12.90;99.90
8676;DHT22;4375;52.486;13.424;2023-10-31T07:41:03;12.90;99.90
8676;DHT22;4375;52.486;13.424;2023-10-31T07:43:29;12.90;99.90
8676;DHT22;4375;52.486;13.424;2023-10-31T07:45:54;12.80;99.90
8676;DHT22;4375;52.486;13.424;2023-10-31T07:48:20;12.80;99.90
8676;DHT22;4375;52.486;13.424;2023-10-31T07:50:45;12.80;99.90
8676;DHT22;4375;52.486;13.424;2023-10-31T07:53:11;12.80;99.90
8676;DHT22;4375;52.486;13.424;2023-10-31T07:55:37;12.70;99.90
8676;DHT22;4375;52.486;13.424;2023-10-31T07:58:02;12.70;99.90
8676;DHT22;4375;52.486;13.424;2023-10-31T08:00:28;12.70;99.90
8676;DHT22;4375;52.486;13.424;2023-10-31T08:02:54;12.70;99.90
8676;DHT22;4375;52.486;13.424;2023-10-31T08:05:19;12.70;99.90
8676;DHT22;4375;52.486;13.424;2023-10-31T08:07:45;12.60;99.90
8676;DHT22;4375;52.486;13.424;2023-10-31T08:10:11;12.60;99.90
8676;DHT22;4375;52.486;13.424;2023-10-31T08:12:37;12.70;99.90
8676;DHT22;4375;52.486;13.424;2023-10-31T08:15:02;12.70;99.90
8676;DHT22;4375;52.486;13.424;2023-10-31T08:17:28;12.60;99.90
8676;DHT22;4375;52.486;13.424;2023-10-31T08:19:53;12.60;99.90
8676;DHT22;4375;52.486;13.424;2023-10-31T08:22:19;12.70;99.90
8676;DHT22;4375;52.486;13.424;2023-10-31T08:24:45;12.70;99.90
8676;DHT22;4375;52.486;13.424;2023-10-31T08:27:10;12.70;99.90
8676;DHT22;4375;52.486;13.424;2023-10-31T08:29:36;12.70;99.90
8676;DHT22;4375;52.486;13.424;2023-10-31T08:32:02;12.70;99.90
8676;DHT22;4375;52.486;13.424;2023-10-31T08:34:27;12.70;99.90
8676;DHT22;4375;52.486;13.424;2023-10-31T08:36:53;12.70;99.90
8676;DHT22;4375;52.486;13.424;2023-10-31T08:39:19;12.80;99.90
8676;DHT22;4375;52.486;13.424;2023-10-31T08:41:54;12.80;99.90
8676;DHT22;4375;52.486;13.424;2023-10-31T08:44:20;13.00;99.90
8676;DHT22;4375;52.486;13.424;2023-10-31T08:46:46;13.30;99.90
8676;DHT22;4375;52.486;13.424;2023-10-31T08:49:13;13.50;99.90
8676;DHT22;4375;52.486;13.424;2023-10-31T08:51:38;13.50;99.90
8676;DHT22;4375;52.486;13.424;2023-10-31T08:54:04;13.60;99.90
8676;DHT22;4375;52.486;13.424;2023-10-31T08:56:30;13.60;99.90
8676;DHT22;4375;52.486;13.424;2023-10-31T08:58:55;13.50;99.90
8676;DHT22;4375;52.486;13.424;2023-10-31T09:01:22;13.30;99.90
8676;DHT22;4375;52.486;13.424;2023-10-31T09:03:47;13.30;99.90
8676;DHT22;4375;52.486;13.424;2023-10-31T09:06:14;13.30;99.90
8676;DHT22;4375;52.486;13.424;2023-10-31T09:08:39;13.30;99.90
8676;DHT22;4375;52.486;13.424;2023-10-31T09:11:05;13.30;99.90
8676;DHT22;4375;52.486;13.424;2023-10-31T09:13:31;13.20;99.90
8676;DHT22;4375;52.486;13.424;2023-10-31T09:15:58;13.10;99.90
8676;DHT22;4375;52.486;13.424;2023-10-31T09:18:24;13.10;99.90
8676;DHT22;4375;52.486;13.424;2023-10-31T09:20:50;13.20;99.90
8676;DHT22;4375;52.486;13.424;2023-10-31T09:23:16;13.20;99.90
8676;DHT22;4375;52.486;13.424;2023-10-31T09:25:45;13.20;99.90
8676;DHT22;4375;52.486;13.424;2023-10-31T09:28:11;13.20;99.90
8676;DHT22;4375;52.486;13.424;2023-10-31T09:30:37;13.30;99.90
8676;DHT22;4375;52.486;13.424;2023-10-31T09:33:02;13.40;99.90
8676;DHT22;4375;52.486;13.424;2023-10-31T09:35:28;13.30;99.90
8676;DHT22;4375;52.486;13.424;2023-10-31T09:37:54;13.40;99.90
8676;DHT22;4375;52.486;13.424;2023-10-31T09:40:20;13.40;99.90
8676;DHT22;4375;52.486;13.424;2023-10-31T09:42:47;13.40;99.90
8676;DHT22;4375;52.486;13.424;2023-10-31T09:45:13;13.40;99.90
8676;DHT22;4375;52.486;13.424;2023-10-31T09:48:00;13.30;99.90
8676;DHT22;4375;52.486;13.424;2023-10-31T09:50:27;13.30;99.90
8676;DHT22;4375;52.486;13.424;2023-10-31T09:52:58;13.30;99.90
8676;DHT22;4375;52.486;13.424;2023-10-31T09:56:00;13.30;99.90
8676;DHT22;4375;52.486;13.424;2023-10-31T09:58:51;13.50;99.90
8676;DHT22;4375;52.486;13.424;2023-10-31T10:01:33;13.50;99.90
8676;DHT22;4375;52.486;13.424;2023-10-31T10:04:02;13.50;99.90
8676;DHT22;4375;52.486;13.424;2023-10-31T10:06:27;13.50;99.90
8676;DHT22;4375;52.486;13.424;2023-10-31T10:08:55;13.60;99.90
8676;DHT22;4375;52.486;13.424;2023-10-31T10:11:22;13.60;99.90
8676;DHT22;4375;52.486;13.424;2023-10-31T10:13:48;13.50;99.90
8676;DHT22;4375;52.486;13.424;2023-10-31T10:16:31;13.40;99.90
8676;DHT22;4375;52.486;13.424;2023-10-31T10:18:57;13.50;99.90
8676;DHT22;4375;52.486;13.424;2023-10-31T10:21:24;13.60;99.90
8676;DHT22;4375;52.486;13.424;2023-10-31T10:23:51;13.80;99.90
8676;DHT22;4375;52.486;13.424;2023-10-31T10:26:17;13.80;99.90
8676;DHT22;4375;52.486;13.424;2023-10-31T10:28:54;13.70;99.90
8676;DHT22;4375;52.486;13.424;2023-10-31T10:31:20;13.80;99.90
8676;DHT22;4375;52.486;13.424;2023-10-31T10:33:49;13.80;99.90
8676;DHT22;4375;52.486;13.424;2023-10-31T10:36:15;13.80;99.90
8676;DHT22;4375;52.486;13.424;2023-10-31T10:38:43;13.80;99.90
8676;DHT22;4375;52.486;13.424;2023-10-31T10:41:12;13.80;99.90
8676;DHT22;4375;52.486;13.424;2023-10-31T10:43:40;13.90;99.90
8676;DHT22;4375;52.486;13.424;2023-10-31T10:46:07;14.10;99.90
8676;DHT22;4375;52.486;13.424;2023-10-31T10:48:39;14.00;99.90
8676;DHT22;4375;52.486;13.424;2023-10-31T10:51:45;14.20;99.90
8676;DHT22;4375;52.486;13.424;2023-10-31T10:54:33;14.20;99.90
8676;DHT22;4375;52.486;13.424;2023-10-31T11:00:13;14.30;99.90
8676;DHT22;4375;52.486;13.424;2023-10-31T11:02:46;14.50;99.90
8676;DHT22;4375;52.486;13.424;2023-10-31T11:05:33;14.30;99.90
8676;DHT22;4375;52.486;13.424;2023-10-31T11:08:11;14.30;99.90
8676;DHT22;4375;52.486;13.424;2023-10-31T11:10:38;14.20;99.90
8676;DHT22;4375;52.486;13.424;2023-10-31T11:13:04;14.20;99.90
8676;DHT22;4375;52.486;13.424;2023-10-31T11:15:30;14.20;99.90
8676;DHT22;4375;52.486;13.424;2023-10-31T11:17:56;14.10;99.90
8676;DHT22;4375;52.486;13.424;2023-10-31T11:20:24;14.10;99.90
8676;DHT22;4375;52.486;13.424;2023-10-31T11:22:55;14.20;99.90
8676;DHT22;4375;52.486;13.424;2023-10-31T11:25:26;14.10;99.90
8676;DHT22;4375;52.486;13.424;2023-10-31T11:27:52;14.20;99.90
8676;DHT22;4375;52.486;13.424;2023-10-31T11:30:29;14.20;99.90
8676;DHT22;4375;52.486;13.424;2023-10-31T11:33:01;14.10;99.90
8676;DHT22;4375;52.486;13.424;2023-10-31T11:35:42;14.10;99.90
8676;DHT22;4375;52.486;13.424;2023-10-31T11:38:10;14.10;99.90
8676;DHT22;4375;52.486;13.424;2023-10-31T11:46:06;14.10;99.90
8676;DHT22;4375;52.486;13.424;2023-10-31T11:48:50;14.10;99.90
8676;DHT22;4375;52.486;13.424;2023-10-31T11:51:23;14.10;99.90
8676;DHT22;4375;52.486;13.424;2023-10-31T11:53:49;14.00;99.90
8676;DHT22;4375;52.486;13.424;2023-10-31T11:56:15;14.00;99.90
8676;DHT22;4375;52.486;13.424;2023-10-31T11:58:41;14.00;99.90
8676;DHT22;4375;52.486;13.424;2023-10-31T12:01:09;14.00;99.90
8676;DHT22;4375;52.486;13.424;2023-10-31T12:04:06;14.00;99.90
8676;DHT22;4375;52.486;13.424;2023-10-31T12:06:32;13.90;99.90
8676;DHT22;4375;52.486;13.424;2023-10-31T12:08:59;13.80;99.90
8676;DHT22;4375;52.486;13.424;2023-10-31T12:11:26;13.60;99.90
8676;DHT22;4375;52.486;13.424;2023-10-31T12:16:29;13.60;99.90
8676;DHT22;4375;52.486;13.424;2023-10-31T12:19:04;13.70;99.90
8676;DHT22;4375;52.486;13.424;2023-10-31T12:21:40;13.70;99.90
8676;DHT22;4375;52.486;13.424;2023-10-31T12:24:09;13.80;99.90
8676;DHT22;4375;52.486;13.424;2023-10-31T12:26:35;13.80;99.90
8676;DHT22;4375;52.486;13.424;2023-10-31T12:29:18;13.70;99.90
8676;DHT22;4375;52.486;13.424;2023-10-31T12:31:49;13.80;99.90
8676;DHT22;4375;52.486;13.424;2023-10-31T12:34:17;13.70;99.90
8676;DHT22;4375;52.486;13.424;2023-10-31T12:36:50;13.70;99.90
8676;DHT22;4375;52.486;13.424;2023-10-31T12:39:18;13.70;99.90
8676;DHT22;4375;52.486;13.424;2023-10-31T12:41:49;13.70;99.90
8676;DHT22;4375;52.486;13.424;2023-10-31T12:44:20;13.70;99.90
8676;DHT22;4375;52.486;13.424;2023-10-31T12:46:48;13.80;99.90
8676;DHT22;4375;52.486;13.424;2023-10-31T12:49:18;13.80;99.90
8676;DHT22;4375;52.486;13.424;2023-10-31T12:52:02;13.80;99.90
8676;DHT22;4375;52.486;13.424;2023-10-31T12:54:36;13.80;99.90
8676;DHT22;4375;52.486;13.424;2023-10-31T12:57:03;13.80;99.90
8676;DHT22;4375;52.486;13.424;2023-10-31T12:59:33;13.80;99.90
8676;DHT22;4375;52.486;13.424;2023-10-31T13:01:59;13.80;99.90
8676;DHT22;4375;52.486;13.424;2023-10-31T13:07:03;13.90;99.90
8676;DHT22;4375;52.486;13.424;2023-10-31T13:09:35;13.80;99.90
8676;DHT22;4375;52.486;13.424;2023-10-31T13:12:03;13.60;99.90
8676;DHT22;4375;52.486;13.424;2023-10-31T13:14:29;13.50;99.90
8676;DHT22;4375;52.486;13.424;2023-10-31T13:16:54;13.60;99.90
8676;DHT22;4375;52.486;13.424;2023-10-31T13:19:20;13.70;99.90
8676;DHT22;4375;52.486;13.424;2023-10-31T13:21:47;13.70;99.90
8676;DHT22;4375;52.486;13.424;2023-10-31T13:24:13;13.60;99.90
8676;DHT22;4375;52.486;13.424;2023-10-31T13:26:38;13.60;99.90
8676;DHT22;4375;52.486;13.424;2023-10-31T13:29:05;13.70;99.90
8676;DHT22;4375;52.486;13.424;2023-10-31T13:31:31;13.70;99.90
8676;DHT22;4375;52.486;13.424;2023-10-31T13:33:56;13.70;99.90
8676;DHT22;4375;52.486;13.424;2023-10-31T13:36:22;13.70;99.90
8676;DHT22;4375;52.486;13.424;2023-10-31T13:38:48;13.80;99.90
8676;DHT22;4375;52.486;13.424;2023-10-31T13:41:14;13.80;99.90
8676;DHT22;4375;52.486;13.424;2023-10-31T13:43:40;13.70;99.90
8676;DHT22;4375;52.486;13.424;2023-10-31T13:46:05;13.50;99.90
8676;DHT22;4375;52.486;13.424;2023-10-31T13:48:31;13.50;99.90
8676;DHT22;4375;52.486;13.424;2023-10-31T13:50:57;13.40;99.90
8676;DHT22;4375;52.486;13.424;2023-10-31T13:56:24;13.30;99.90
8676;DHT22;4375;52.486;13.424;2023-10-31T13:58:50;13.30;99.90
8676;DHT22;4375;52.486;13.424;2023-10-31T14:01:16;13.30;99.90
8676;DHT22;4375;52.486;13.424;2023-10-31T14:03:41;13.30;99.90
8676;DHT22;4375;52.486;13.424;2023-10-31T14:06:13;13.30;99.90
8676;DHT22;4375;52.486;13.424;2023-10-31T14:08:39;13.20;99.90
8676;DHT22;4375;52.486;13.424;2023-10-31T14:11:12;13.10;99.90
8676;DHT22;4375;52.486;13.424;2023-10-31T14:14:15;13.10;99.90
8676;DHT22;4375;52.486;13.424;2023-10-31T14:16:41;13.00;99.90
8676;DHT22;4375;52.486;13.424;2023-10-31T14:19:08;13.00;99.90
8676;DHT22;4375;52.486;13.424;2023-10-31T14:21:34;12.90;99.90
8676;DHT22;4375;52.486;13.424;2023-10-31T14:24:00;13.00;99.90
8676;DHT22;4375;52.486;13.424;2023-10-31T14:26:27;13.00;99.90
8676;DHT22;4375;52.486;13.424;2023-10-31T14:28:53;12.90;99.90
8676;DHT22;4375;52.486;13.424;2023-10-31T14:31:19;13.00;99.90
8676;DHT22;4375;52.486;13.424;2023-10-31T14:33:47;12.90;99.90
8676;DHT22;4375;52.486;13.424;2023-10-31T14:36:13;12.80;99.90
8676;DHT22;4375;52.486;13.424;2023-10-31T14:39:04;12.80;99.90
8676;DHT22;4375;52.486;13.424;2023-10-31T14:41:30;12.80;99.90
8676;DHT22;4375;52.486;13.424;2023-10-31T14:43:59;12.70;99.90
8676;DHT22;4375;52.486;13.424;2023-10-31T14:46:25;12.70;99.90
8676;DHT22;4375;52.486;13.424;2023-10-31T14:48:51;12.70;99.90
8676;DHT22;4375;52.486;13.424;2023-10-31T14:51:17;12.60;99.90
8676;DHT22;4375;52.486;13.424;2023-10-31T14:53:42;12.50;99.90
8676;DHT22;4375;52.486;13.424;2023-10-31T14:56:08;12.40;99.90
8676;DHT22;4375;52.486;13.424;2023-10-31T14:58:34;12.50;99.90
8676;DHT22;4375;52.486;13.424;2023-10-31T15:00:59;12.30;99.90
8676;DHT22;4375;52.486;13.424;2023-10-31T15:03:25;12.30;99.90
8676;DHT22;4375;52.486;13.424;2023-10-31T15:05:51;12.20;99.90
8676;DHT22;4375;52.486;13.424;2023-10-31T15:08:16;12.10;99.90
8676;DHT22;4375;52.486;13.424;2023-10-31T15:10:45;12.20;99.90
8676;DHT22;4375;52.486;13.424;2023-10-31T15:13:11;12.20;99.90
8676;DHT22;4375;52.486;13.424;2023-10-31T15:15:36;12.20;99.90
8676;DHT22;4375;52.486;13.424;2023-10-31T15:18:02;12.20;99.90
8676;DHT22;4375;52.486;13.424;2023-10-31T15:20:28;12.10;99.90
8676;DHT22;4375;52.486;13.424;2023-10-31T15:22:54;12.10;99.90
8676;DHT22;4375;52.486;13.424;2023-10-31T15:25:20;12.10;99.90
8676;DHT22;4375;52.486;13.424;2023-10-31T15:27:46;12.10;99.90
8676;DHT22;4375;52.486;13.424;2023-10-31T15:30:12;12.20;99.90
8676;DHT22;4375;52.486;13.424;2023-10-31T15:32:38;12.10;99.90
8676;DHT22;4375;52.486;13.424;2023-10-31T15:35:05;12.10;99.90
8676;DHT22;4375;52.486;13.424;2023-10-31T15:37:31;12.10;99.90
8676;DHT22;4375;52.486;13.424;2023-10-31T15:39:57;12.20;99.90
8676;DHT22;4375;52.486;13.424;2023-10-31T15:42:23;12.20;99.90
8676;DHT22;4375;52.486;13.424;2023-10-31T15:44:48;12.10;99.90
8676;DHT22;4375;52.486;13.424;2023-10-31T15:47:14;12.00;99.90
8676;DHT22;4375;52.486;13.424;2023-10-31T15:49:40;11.90;99.90
8676;DHT22;4375;52.486;13.424;2023-10-31T15:52:06;12.00;99.90
8676;DHT22;4375;52.486;13.424;2023-10-31T15:54:31;12.00;99.90
8676;DHT22;4375;52.486;13.424;2023-10-31T15:56:58;11.90;99.90
8676;DHT22;4375;52.486;13.424;2023-10-31T15:59:25;12.00;99.90
8676;DHT22;4375;52.486;13.424;2023-10-31T16:01:51;11.90;99.90
8676;DHT22;4375;52.486;13.424;2023-10-31T16:04:17;11.80;99.90
8676;DHT22;4375;52.486;13.424;2023-10-31T16:06:42;11.90;99.90
8676;DHT22;4375;52.486;13.424;2023-10-31T16:09:08;11.90;99.90
8676;DHT22;4375;52.486;13.424;2023-10-31T16:11:34;11.80;99.90
8676;DHT22;4375;52.486;13.424;2023-10-31T16:14:00;11.90;99.90
8676;DHT22;4375;52.486;13.424;2023-10-31T16:16:26;11.90;99.90
8676;DHT22;4375;52.486;13.424;2023-10-31T16:18:53;11.90;99.90
8676;DHT22;4375;52.486;13.424;2023-10-31T16:21:22;11.90;99.90
8676;DHT22;4375;52.486;13.424;2023-10-31T16:23:49;11.90;99.90
8676;DHT22;4375;52.486;13.424;2023-10-31T16:26:19;11.80;99.90
8676;DHT22;4375;52.486;13.424;2023-10-31T16:28:45;11.80;99.90
8676;DHT22;4375;52.486;13.424;2023-10-31T16:31:12;11.70;99.90
8676;DHT22;4375;52.486;13.424;2023-10-31T16:33:39;11.80;99.90
8676;DHT22;4375;52.486;13.424;2023-10-31T16:36:05;11.80;99.90
8676;DHT22;4375;52.486;13.424;2023-10-31T16:38:31;11.80;99.90
8676;DHT22;4375;52.486;13.424;2023-10-31T16:41:00;11.80;99.90
8676;DHT22;4375;52.486;13.424;2023-10-31T16:43:27;11.80;99.90
8676;DHT22;4375;52.486;13.424;2023-10-31T16:45:53;11.80;99.90
8676;DHT22;4375;52.486;13.424;2023-10-31T16:48:19;11.80;99.90
8676;DHT22;4375;52.486;13.424;2023-10-31T16:50:44;11.70;99.90
8676;DHT22;4375;52.486;13.424;2023-10-31T16:53:10;11.70;99.90
8676;DHT22;4375;52.486;13.424;2023-10-31T16:55:35;11.80;99.90
8676;DHT22;4375;52.486;13.424;2023-10-31T16:58:02;11.70;99.90
8676;DHT22;4375;52.486;13.424;2023-10-31T17:00:30;11.80;99.90
8676;DHT22;4375;52.486;13.424;2023-10-31T17:02:55;11.80;99.90
8676;DHT22;4375;52.486;13.424;2023-10-31T17:05:21;11.80;99.90
8676;DHT22;4375;52.486;13.424;2023-10-31T17:07:46;11.70;99.90
8676;DHT22;4375;52.486;13.424;2023-10-31T17:10:12;11.80;99.90
8676;DHT22;4375;52.486;13.424;2023-10-31T17:12:38;11.80;99.90
8676;DHT22;4375;52.486;13.424;2023-10-31T17:15:04;11.80;99.90
8676;DHT22;4375;52.486;13.424;2023-10-31T17:17:32;11.70;99.90
8676;DHT22;4375;52.486;13.424;2023-10-31T17:19:58;11.80;99.90
8676;DHT22;4375;52.486;13.424;2023-10-31T17:22:23;11.80;99.90
8676;DHT22;4375;52.486;13.424;2023-10-31T17:24:49;11.80;99.90
8676;DHT22;4375;52.486;13.424;2023-10-31T17:27:15;11.70;99.90
8676;DHT22;4375;52.486;13.424;2023-10-31T17:29:40;11.70;99.90
8676;DHT22;4375;52.486;13.424;2023-10-31T17:32:06;11.60;99.90
8676;DHT22;4375;52.486;13.424;2023-10-31T17:34:33;11.50;99.90
8676;DHT22;4375;52.486;13.424;2023-10-31T17:36:58;11.50;99.90
8676;DHT22;4375;52.486;13.424;2023-10-31T17:39:24;11.40;99.90
8676;DHT22;4375;52.486;13.424;2023-10-31T17:41:50;11.40;99.90
8676;DHT22;4375;52.486;13.424;2023-10-31T17:44:16;11.40;99.90
8676;DHT22;4375;52.486;13.424;2023-10-31T17:46:42;11.40;99.90
8676;DHT22;4375;52.486;13.424;2023-10-31T17:49:07;11.30;99.90
8676;DHT22;4375;52.486;13.424;2023-10-31T17:51:39;11.30;99.90
8676;DHT22;4375;52.486;13.424;2023-10-31T17:54:06;11.20;99.90
8676;DHT22;4375;52.486;13.424;2023-10-31T17:56:31;11.30;99.90
8676;DHT22;4375;52.486;13.424;2023-10-31T17:58:57;11.30;99.90
8676;DHT22;4375;52.486;13.424;2023-10-31T18:01:23;11.30;99.90
8676;DHT22;4375;52.486;13.424;2023-10-31T18:03:48;11.30;99.90
8676;DHT22;4375;52.486;13.424;2023-10-31T18:06:14;11.30;99.90
8676;DHT22;4375;52.486;13.424;2023-10-31T18:08:40;11.30;99.90
8676;DHT22;4375;52.486;13.424;2023-10-31T18:11:05;11.30;99.90
8676;DHT22;4375;52.486;13.424;2023-10-31T18:13:31;11.40;99.90
8676;DHT22;4375;52.486;13.424;2023-10-31T18:15:57;11.40;99.90
8676;DHT22;4375;52.486;13.424;2023-10-31T18:18:22;11.50;99.90
8676;DHT22;4375;52.486;13.424;2023-10-31T18:20:48;11.50;99.90
8676;DHT22;4375;52.486;13.424;2023-10-31T18:23:15;11.50;99.90
8676;DHT22;4375;52.486;13.424;2023-10-31T18:25:41;11.50;99.90
8676;DHT22;4375;52.486;13.424;2023-10-31T18:28:07;11.60;99.90
8676;DHT22;4375;52.486;13.424;2023-10-31T18:30:32;11.50;99.90
8676;DHT22;4375;52.486;13.424;2023-10-31T18:32:58;11.60;99.90
8676;DHT22;4375;52.486;13.424;2023-10-31T18:35:28;11.60;99.90
8676;DHT22;4375;52.486;13.424;2023-10-31T18:37:55;11.50;99.90
8676;DHT22;4375;52.486;13.424;2023-10-31T18:40:20;11.60;99.90
8676;DHT22;4375;52.486;13.424;2023-10-31T18:42:46;11.70;99.90
8676;DHT22;4375;52.486;13.424;2023-10-31T18:45:12;11.70;99.90
8676;DHT22;4375;52.486;13.424;2023-10-31T18:47:43;11.70;99.90
8676;DHT22;4375;52.486;13.424;2023-10-31T18:50:09;11.60;99.90
8676;DHT22;4375;52.486;13.424;2023-10-31T18:52:34;11.60;99.90
8676;DHT22;4375;52.486;13.424;2023-10-31T18:55:00;11.60;99.90
8676;DHT22;4375;52.486;13.424;2023-10-31T18:57:26;11.70;99.90
8676;DHT22;4375;52.486;13.424;2023-10-31T18:59:55;11.60;99.90